Time;durP1;ratioP1;P1;durP2;ratioP2;P2;SDS_P1;SDS_P2;PMS_P1;PMS_P2;Temp;Humidity;BMP_temperature;BMP_pressure;BME280_temperature;BME280_humidity;BME280_pressure;Samples;Min_cycle;Max_cycle;Signal;HPM_P1;HPM_P2
2023/09/13 00:00:52;;;;;;;12.20;8.40;;;22.90;66.30;;;;;;5012993;28;20497;-71
2023/09/13 00:03:17;;;;;;;11.47;7.60;;;22.70;66.70;;;;;;5014156;28;20744;-70
2023/09/13 00:05:43;;;;;;;12.10;8.00;;;22.50;67.20;;;;;;5008979;28;20214;-72
2023/09/13 00:08:09;;;;;;;13.87;7.80;;;22.50;67.50;;;;;;5012896;28;20187;-71
2023/09/13 00:10:35;;;;;;;13.13;7.87;;;22.50;67.50;;;;;;5013306;28;20664;-69
2023/09/13 00:13:00;;;;;;;12.03;8.13;;;22.50;67.70;;;;;;5010609;28;20441;-71
2023/09/13 00:15:26;;;;;;;14.80;8.20;;;22.50;68.00;;;;;;5010415;28;20629;-69
2023/09/13 00:17:52;;;;;;;13.80;8.33;;;22.40;68.50;;;;;;5009154;28;20219;-71
2023/09/13 00:20:17;;;;;;;14.00;8.60;;;22.50;69.10;;;;;;5009326;28;20189;-71
2023/09/13 00:22:45;;;;;;;12.83;7.63;;;22.50;69.10;;;;;;5016080;28;20241;-71
2023/09/13 00:25:11;;;;;;;13.70;8.10;;;22.50;68.90;;;;;;5010322;28;20219;-71
2023/09/13 00:27:36;;;;;;;13.63;7.40;;;22.50;69.10;;;;;;5009211;28;20852;-71
2023/09/13 00:30:02;;;;;;;13.43;8.87;;;22.60;69.40;;;;;;5010215;28;20183;-70
2023/09/13 00:32:28;;;;;;;12.20;8.33;;;22.60;69.80;;;;;;5011595;28;20262;-71
2023/09/13 00:34:53;;;;;;;18.33;8.87;;;22.60;70.80;;;;;;5008687;28;20594;-70
2023/09/13 00:37:19;;;;;;;15.80;8.07;;;22.50;72.00;;;;;;5012705;28;20222;-71
2023/09/13 00:39:45;;;;;;;12.77;8.73;;;22.50;71.70;;;;;;5017277;28;20201;-71
2023/09/13 00:42:10;;;;;;;12.60;8.30;;;22.50;71.80;;;;;;5011080;28;20188;-69
2023/09/13 00:44:36;;;;;;;17.50;8.57;;;22.30;73.20;;;;;;5009247;28;20681;-70
2023/09/13 00:47:01;;;;;;;13.60;8.43;;;22.30;73.90;;;;;;5009219;28;20190;-69
2023/09/13 00:49:27;;;;;;;16.27;9.63;;;22.10;75.40;;;;;;5013349;28;20187;-70
2023/09/13 00:51:55;;;;;;;13.10;9.80;;;22.00;77.30;;;;;;5014475;28;20197;-71
2023/09/13 00:54:20;;;;;;;16.10;9.13;;;22.00;78.00;;;;;;5012738;28;20185;-70
2023/09/13 00:56:46;;;;;;;14.60;9.50;;;21.90;78.90;;;;;;5009081;28;20479;-71
2023/09/13 00:59:12;;;;;;;15.27;9.30;;;21.80;79.60;;;;;;5009313;28;20592;-69
2023/09/13 01:01:38;;;;;;;14.23;9.33;;;21.70;79.70;;;;;;5006844;28;20180;-71
2023/09/13 01:04:04;;;;;;;17.60;9.63;;;21.50;80.50;;;;;;5002940;28;20432;-70
2023/09/13 01:06:30;;;;;;;16.80;9.77;;;21.40;80.80;;;;;;5006791;28;20533;-69
2023/09/13 01:08:55;;;;;;;19.43;9.63;;;21.30;81.10;;;;;;5012347;28;20731;-71
2023/09/13 01:11:22;;;;;;;16.43;10.20;;;21.30;81.50;;;;;;5014095;28;20427;-70
2023/09/13 01:13:47;;;;;;;15.07;9.03;;;21.30;81.80;;;;;;5009935;28;20195;-70
2023/09/13 01:16:33;;;;;;;17.60;9.33;;;21.20;82.10;;;;;;5004257;28;20472;-71
2023/09/13 01:19:05;;;;;;;16.00;10.00;;;21.20;82.20;;;;;;5015419;28;20193;-70
2023/09/13 01:21:55;;;;;;;14.77;9.27;;;21.10;82.20;;;;;;5009450;28;20478;-70
2023/09/13 01:24:55;;;;;;;15.80;10.80;;;21.10;82.40;;;;;;5008307;28;20467;-71
2023/09/13 01:27:59;;;;;;;15.77;10.23;;;21.00;82.20;;;;;;5006554;28;20442;-69
2023/09/13 01:30:26;;;;;;;14.60;9.20;;;20.90;83.00;;;;;;5010268;28;22628;-70
2023/09/13 01:32:52;;;;;;;21.80;10.17;;;20.80;83.10;;;;;;5013294;28;20446;-69
2023/09/13 01:35:17;;;;;;;19.23;9.73;;;20.70;84.00;;;;;;5009673;28;20561;-69
2023/09/13 01:37:43;;;;;;;18.67;9.70;;;20.50;84.40;;;;;;5010223;28;20219;-70
2023/09/13 01:40:09;;;;;;;16.60;9.60;;;20.40;84.90;;;;;;5010270;28;20689;-70
2023/09/13 01:42:38;;;;;;;26.70;12.43;;;20.30;85.00;;;;;;5002919;28;20434;-72
2023/09/13 01:45:09;;;;;;;16.20;10.60;;;20.30;85.00;;;;;;5005720;28;20210;-71
2023/09/13 01:47:35;;;;;;;15.60;9.33;;;20.20;84.70;;;;;;5002965;28;20438;-70
2023/09/13 01:50:01;;;;;;;19.67;10.50;;;20.30;84.40;;;;;;5005830;28;20417;-70
2023/09/13 01:52:28;;;;;;;15.97;9.90;;;20.30;84.10;;;;;;5004899;28;20422;-69
2023/09/13 01:54:54;;;;;;;18.67;10.30;;;20.30;84.30;;;;;;5001579;28;20521;-70
2023/09/13 01:57:20;;;;;;;15.10;9.77;;;20.20;84.30;;;;;;5009307;28;20561;-69
2023/09/13 01:59:45;;;;;;;14.97;8.13;;;20.20;84.70;;;;;;5010608;28;20842;-71
2023/09/13 02:02:11;;;;;;;15.13;9.10;;;20.30;84.10;;;;;;5019531;28;20187;-70
2023/09/13 02:04:36;;;;;;;14.60;8.80;;;20.30;83.60;;;;;;5018028;28;20192;-69
2023/09/13 02:07:03;;;;;;;13.60;7.43;;;20.30;83.70;;;;;;5007495;28;20259;-70
2023/09/13 02:09:28;;;;;;;12.47;6.57;;;20.30;82.40;;;;;;5013553;28;20207;-72
2023/09/13 02:11:54;;;;;;;11.67;7.90;;;20.40;81.90;;;;;;5015976;28;20430;-71
2023/09/13 02:14:20;;;;;;;10.40;6.70;;;20.50;81.40;;;;;;5012142;28;20332;-70
2023/09/13 02:16:45;;;;;;;10.90;6.67;;;20.30;81.70;;;;;;5008304;28;20732;-70
2023/09/13 02:19:11;;;;;;;13.70;7.93;;;20.20;82.20;;;;;;5009858;28;20274;-71
2023/09/13 02:21:36;;;;;;;13.90;8.20;;;20.20;82.70;;;;;;5012464;28;20197;-71
2023/09/13 02:24:02;;;;;;;10.87;6.90;;;20.10;83.10;;;;;;5016475;28;20608;-69
2023/09/13 02:26:28;;;;;;;12.57;8.57;;;20.10;83.40;;;;;;5008887;28;20238;-69
2023/09/13 02:28:53;;;;;;;14.23;8.27;;;20.10;83.80;;;;;;5014922;28;20265;-71
2023/09/13 02:31:28;;;;;;;14.33;7.30;;;20.10;84.00;;;;;;5007890;28;20218;-71
2023/09/13 02:33:54;;;;;;;15.53;8.40;;;20.00;84.30;;;;;;5011098;28;20246;-68
2023/09/13 02:36:20;;;;;;;11.07;6.60;;;20.10;84.40;;;;;;5004388;28;20489;-70
2023/09/13 02:38:45;;;;;;;11.70;7.47;;;20.10;84.40;;;;;;5007454;28;20493;-69
2023/09/13 02:41:11;;;;;;;11.33;7.30;;;20.00;84.30;;;;;;5007613;28;20497;-69
2023/09/13 02:43:40;;;;;;;12.83;7.40;;;19.90;84.10;;;;;;5006365;28;20242;-70
2023/09/13 02:46:05;;;;;;;11.40;6.77;;;19.80;83.80;;;;;;5004607;28;20218;-70
2023/09/13 02:48:31;;;;;;;11.53;7.57;;;19.80;83.70;;;;;;5007524;28;21004;-70
2023/09/13 02:50:57;;;;;;;11.83;6.87;;;19.90;84.00;;;;;;5006861;28;20191;-68
2023/09/13 02:53:22;;;;;;;12.40;7.20;;;19.80;84.00;;;;;;5003905;28;20190;-70
2023/09/13 02:55:48;;;;;;;9.10;6.40;;;19.80;84.30;;;;;;5006912;28;20206;-68
2023/09/13 02:58:14;;;;;;;10.43;6.63;;;19.80;84.00;;;;;;5008062;28;20178;-69
2023/09/13 03:00:43;;;;;;;10.43;6.43;;;19.80;84.10;;;;;;5003794;28;20189;-68
2023/09/13 03:03:09;;;;;;;12.17;7.30;;;19.80;83.80;;;;;;5021310;28;20197;-68
2023/09/13 03:05:36;;;;;;;13.40;7.83;;;19.80;84.00;;;;;;5010830;28;20701;-70
2023/09/13 03:08:02;;;;;;;11.77;6.97;;;19.70;84.40;;;;;;5022368;28;20455;-70
2023/09/13 03:10:28;;;;;;;13.57;8.07;;;19.70;85.00;;;;;;5008144;28;20598;-72
2023/09/13 03:12:54;;;;;;;11.97;6.87;;;19.60;85.00;;;;;;5008992;28;21203;-70
2023/09/13 03:15:19;;;;;;;11.10;7.17;;;19.50;84.90;;;;;;5000557;28;20206;-71
2023/09/13 03:17:45;;;;;;;11.17;7.60;;;19.50;85.00;;;;;;5004593;28;20218;-70
2023/09/13 03:20:11;;;;;;;12.17;6.63;;;19.50;84.90;;;;;;5017620;28;20729;-70
2023/09/13 03:22:37;;;;;;;12.67;6.57;;;19.60;84.90;;;;;;5010903;28;20186;-70
2023/09/13 03:25:05;;;;;;;16.70;7.70;;;19.70;85.00;;;;;;5005102;28;20513;-70
2023/09/13 03:27:32;;;;;;;13.40;7.47;;;19.80;85.00;;;;;;5011624;28;20195;-70
2023/09/13 03:29:59;;;;;;;15.13;8.10;;;19.80;85.00;;;;;;5011350;28;20426;-70
2023/09/13 03:32:25;;;;;;;13.20;7.70;;;19.80;85.00;;;;;;5011274;28;20417;-70
2023/09/13 03:34:51;;;;;;;14.10;7.73;;;19.90;84.60;;;;;;5008945;28;20448;-69
2023/09/13 03:37:18;;;;;;;14.07;7.57;;;20.00;84.30;;;;;;5011552;28;20311;-70
2023/09/13 03:39:43;;;;;;;16.40;8.30;;;19.90;84.30;;;;;;5013036;28;20438;-71
2023/09/13 03:42:09;;;;;;;18.17;8.50;;;19.90;84.40;;;;;;5013310;28;20437;-70
2023/09/13 03:44:34;;;;;;;14.40;9.73;;;19.90;84.40;;;;;;5009110;28;20210;-69
2023/09/13 03:47:00;;;;;;;14.87;9.30;;;19.80;84.70;;;;;;5006854;28;20194;-70
2023/09/13 03:49:26;;;;;;;13.20;8.70;;;19.80;85.00;;;;;;5010685;28;20312;-70
2023/09/13 03:51:51;;;;;;;13.90;8.77;;;19.90;84.90;;;;;;5006064;28;20197;-70
2023/09/13 03:54:17;;;;;;;16.10;9.20;;;19.80;84.70;;;;;;5011259;28;20194;-68
2023/09/13 03:56:44;;;;;;;12.53;8.43;;;19.80;85.20;;;;;;5013383;28;20225;-69
2023/09/13 03:59:09;;;;;;;13.80;8.53;;;19.80;85.20;;;;;;5011858;28;20177;-70
2023/09/13 04:01:35;;;;;;;14.53;9.97;;;19.80;85.50;;;;;;5005223;28;20480;-71
2023/09/13 04:04:01;;;;;;;13.50;8.90;;;19.80;85.70;;;;;;5001455;28;20191;-71
2023/09/13 04:06:26;;;;;;;14.03;8.60;;;19.80;86.20;;;;;;5007039;28;20217;-71
2023/09/13 04:08:52;;;;;;;15.17;9.30;;;19.70;86.20;;;;;;5008377;28;20182;-71
2023/09/13 04:11:18;;;;;;;14.00;9.20;;;19.80;86.20;;;;;;5011899;28;20246;-70
2023/09/13 04:13:43;;;;;;;16.00;9.53;;;19.70;85.90;;;;;;5013167;28;20197;-71
2023/09/13 04:16:13;;;;;;;13.17;7.97;;;19.60;85.90;;;;;;5001769;28;20289;-69
2023/09/13 04:18:39;;;;;;;12.03;7.83;;;19.60;85.90;;;;;;5013700;28;20186;-69
2023/09/13 04:21:05;;;;;;;15.03;9.13;;;19.70;85.70;;;;;;5007884;28;20908;-71
2023/09/13 04:23:31;;;;;;;12.10;9.10;;;19.80;85.50;;;;;;5007799;28;20197;-69
2023/09/13 04:25:57;;;;;;;13.37;8.30;;;19.90;84.70;;;;;;5010439;28;20223;-71
2023/09/13 04:28:24;;;;;;;14.27;8.93;;;19.80;84.60;;;;;;5017633;28;20951;-71
2023/09/13 04:30:50;;;;;;;13.70;7.77;;;19.80;84.90;;;;;;5011189;28;20187;-71
2023/09/13 04:33:15;;;;;;;12.30;8.20;;;19.80;85.00;;;;;;5013372;28;20452;-71
2023/09/13 04:35:41;;;;;;;12.33;7.60;;;19.80;85.20;;;;;;5001753;28;20214;-69
2023/09/13 04:38:07;;;;;;;13.37;7.40;;;19.80;84.90;;;;;;5008890;28;20237;-70
2023/09/13 04:40:32;;;;;;;13.77;7.53;;;19.80;84.70;;;;;;5008567;28;20634;-71
2023/09/13 04:43:07;;;;;;;12.73;7.93;;;19.70;84.70;;;;;;5010806;28;20214;-69
2023/09/13 04:45:33;;;;;;;15.77;7.60;;;19.70;84.70;;;;;;5015391;28;21181;-70
2023/09/13 04:47:59;;;;;;;14.50;8.30;;;19.70;84.60;;;;;;5007765;28;20433;-68
2023/09/13 04:50:25;;;;;;;12.83;8.27;;;19.70;84.60;;;;;;5009396;28;20429;-69
2023/09/13 04:52:51;;;;;;;12.57;8.80;;;19.60;84.70;;;;;;5014938;28;20177;-68
2023/09/13 04:55:19;;;;;;;14.87;8.30;;;19.60;84.90;;;;;;5007747;28;20214;-70
2023/09/13 04:57:45;;;;;;;13.70;8.60;;;19.70;85.00;;;;;;5014288;28;20607;-69
2023/09/13 05:00:11;;;;;;;14.63;9.00;;;19.80;84.70;;;;;;5010565;28;20542;-69
2023/09/13 05:02:38;;;;;;;14.33;8.60;;;19.90;84.10;;;;;;5011847;28;20452;-68
2023/09/13 05:05:04;;;;;;;14.63;9.50;;;19.80;84.00;;;;;;5009794;28;20508;-69
2023/09/13 05:07:29;;;;;;;12.27;8.23;;;19.70;84.60;;;;;;5011717;28;21208;-68
2023/09/13 05:09:55;;;;;;;14.63;8.23;;;19.70;84.90;;;;;;5013369;28;20445;-70
2023/09/13 05:12:21;;;;;;;12.97;8.73;;;19.60;85.00;;;;;;5014761;28;20186;-69
2023/09/13 05:14:47;;;;;;;16.57;7.80;;;19.60;85.20;;;;;;5011922;28;20265;-67
2023/09/13 05:17:13;;;;;;;13.07;8.90;;;19.60;85.30;;;;;;5006952;28;20215;-71
2023/09/13 05:19:38;;;;;;;12.00;7.73;;;19.60;85.30;;;;;;5011965;28;20484;-70
2023/09/13 05:22:04;;;;;;;12.43;7.37;;;19.60;85.20;;;;;;5011763;28;21109;-71
2023/09/13 05:24:30;;;;;;;11.53;7.03;;;19.60;84.60;;;;;;5010897;28;20187;-69
2023/09/13 05:26:55;;;;;;;12.17;7.33;;;19.60;82.10;;;;;;5004422;28;20202;-69
2023/09/13 05:29:22;;;;;;;14.40;7.40;;;19.70;82.20;;;;;;5013037;28;20185;-69
2023/09/13 05:31:48;;;;;;;12.20;7.47;;;19.80;82.50;;;;;;5012641;28;20540;-70
2023/09/13 05:34:14;;;;;;;12.23;8.43;;;19.90;82.50;;;;;;5010419;28;20461;-68
2023/09/13 05:36:41;;;;;;;12.30;7.87;;;20.00;82.40;;;;;;5001745;28;20487;-70
2023/09/13 05:39:07;;;;;;;13.80;8.30;;;20.00;82.40;;;;;;5011013;28;20190;-69
2023/09/13 05:41:33;;;;;;;13.33;8.07;;;20.00;81.80;;;;;;5006281;28;20423;-70
2023/09/13 05:43:58;;;;;;;12.63;7.53;;;19.90;82.20;;;;;;5012760;28;20544;-70
2023/09/13 05:46:24;;;;;;;12.33;6.87;;;19.80;82.20;;;;;;5000257;28;20217;-71
2023/09/13 05:48:49;;;;;;;10.20;6.60;;;19.80;81.80;;;;;;5012185;28;20623;-70
2023/09/13 05:51:16;;;;;;;10.37;6.40;;;19.80;82.10;;;;;;5013079;28;20240;-69
2023/09/13 05:53:42;;;;;;;10.90;6.63;;;19.80;81.70;;;;;;5014391;28;20186;-69
2023/09/13 05:56:11;;;;;;;11.03;7.10;;;19.80;81.50;;;;;;5003376;28;20472;-69
2023/09/13 05:58:36;;;;;;;13.07;7.17;;;19.80;81.20;;;;;;5011174;28;20190;-69
2023/09/13 06:01:02;;;;;;;12.40;6.00;;;19.90;80.90;;;;;;5004552;28;20443;-70
2023/09/13 06:03:30;;;;;;;10.23;6.10;;;19.80;80.80;;;;;;5003109;28;20249;-70
2023/09/13 06:05:56;;;;;;;9.17;5.97;;;19.90;80.50;;;;;;5003326;28;20229;-70
2023/09/13 06:08:22;;;;;;;9.03;5.93;;;20.00;79.90;;;;;;5009624;28;20497;-69
2023/09/13 06:10:48;;;;;;;9.13;5.60;;;20.00;80.00;;;;;;5011073;28;20422;-69
2023/09/13 06:13:15;;;;;;;10.47;6.83;;;20.00;79.90;;;;;;5011000;28;20195;-70
2023/09/13 06:15:42;;;;;;;9.20;6.13;;;20.00;79.90;;;;;;5003325;28;20460;-67
2023/09/13 06:18:09;;;;;;;8.43;6.00;;;20.00;80.00;;;;;;5009572;28;20494;-71
2023/09/13 06:20:35;;;;;;;9.23;6.47;;;20.00;80.20;;;;;;5006543;28;20451;-69
2023/09/13 06:23:01;;;;;;;8.03;5.90;;;20.00;79.70;;;;;;5011198;28;21025;-69
2023/09/13 06:25:26;;;;;;;9.27;5.60;;;20.00;79.70;;;;;;5008125;28;20242;-70
2023/09/13 06:27:52;;;;;;;10.30;6.43;;;20.10;79.60;;;;;;5011862;28;20266;-69
2023/09/13 06:30:20;;;;;;;10.33;6.23;;;20.20;79.30;;;;;;5014366;28;20679;-70
2023/09/13 06:32:46;;;;;;;9.23;6.30;;;20.30;79.20;;;;;;5013090;28;20180;-70
2023/09/13 06:35:13;;;;;;;9.57;6.57;;;20.20;79.30;;;;;;5010925;28;20550;-71
2023/09/13 06:37:40;;;;;;;10.70;6.10;;;20.20;79.70;;;;;;5010467;28;20219;-67
2023/09/13 06:40:07;;;;;;;10.13;6.13;;;20.10;79.90;;;;;;5013557;28;20541;-68
2023/09/13 06:42:32;;;;;;;8.90;5.83;;;20.00;79.50;;;;;;5010162;28;20437;-71
2023/09/13 06:44:59;;;;;;;14.23;5.77;;;19.90;80.60;;;;;;5009541;28;20464;-69
2023/09/13 06:47:28;;;;;;;10.17;6.87;;;19.90;81.10;;;;;;5014343;28;20293;-68
2023/09/13 06:49:54;;;;;;;12.20;6.93;;;20.00;80.80;;;;;;5011349;28;20507;-68
2023/09/13 06:52:21;;;;;;;14.10;6.07;;;20.00;80.90;;;;;;5017797;28;20977;-70
2023/09/13 06:54:47;;;;;;;11.20;6.80;;;20.00;81.20;;;;;;5009940;28;20425;-70
2023/09/13 06:57:12;;;;;;;10.03;6.93;;;20.00;80.90;;;;;;5011727;28;20922;-70
2023/09/13 06:59:39;;;;;;;9.57;5.90;;;20.00;80.80;;;;;;5007204;28;20233;-69
2023/09/13 07:02:05;;;;;;;9.47;6.23;;;20.10;80.30;;;;;;5005924;28;20191;-68
2023/09/13 07:04:31;;;;;;;11.77;6.60;;;20.10;79.60;;;;;;5010212;28;20936;-69
2023/09/13 07:06:56;;;;;;;11.80;5.93;;;20.10;80.00;;;;;;5005570;28;20446;-69
2023/09/13 07:09:22;;;;;;;8.13;5.33;;;20.10;79.60;;;;;;5011027;28;20190;-70
2023/09/13 07:11:48;;;;;;;10.87;6.20;;;20.10;79.70;;;;;;5005719;28;20445;-68
2023/09/13 07:14:13;;;;;;;8.77;5.67;;;20.10;79.60;;;;;;5010202;28;20183;-70
2023/09/13 07:16:39;;;;;;;12.07;5.73;;;20.10;79.70;;;;;;5008796;28;20737;-70
2023/09/13 07:19:06;;;;;;;8.37;5.40;;;20.10;79.60;;;;;;5007946;28;20736;-70
2023/09/13 07:21:31;;;;;;;9.70;5.63;;;20.10;79.50;;;;;;5005668;28;20180;-70
2023/09/13 07:23:57;;;;;;;10.57;6.40;;;20.20;79.20;;;;;;5009138;28;20428;-68
2023/09/13 07:26:23;;;;;;;8.90;5.60;;;20.30;79.20;;;;;;5010488;28;20233;-71
2023/09/13 07:28:48;;;;;;;7.50;5.50;;;20.30;78.90;;;;;;5020638;28;20215;-68
2023/09/13 07:31:14;;;;;;;9.13;5.90;;;20.40;79.00;;;;;;5010907;28;20220;-70
2023/09/13 07:33:39;;;;;;;8.80;5.43;;;20.50;78.40;;;;;;5012520;28;20229;-69
2023/09/13 07:36:05;;;;;;;8.60;5.50;;;20.60;78.00;;;;;;5006903;28;20259;-70
2023/09/13 07:38:31;;;;;;;9.10;5.43;;;20.50;77.60;;;;;;5027082;28;20215;-70
2023/09/13 07:40:56;;;;;;;8.27;5.60;;;20.50;78.10;;;;;;5019157;28;20191;-72
2023/09/13 07:43:22;;;;;;;10.40;5.60;;;20.50;78.30;;;;;;5011785;28;20191;-70
2023/09/13 07:45:49;;;;;;;9.73;6.43;;;20.60;77.60;;;;;;5011915;28;20558;-71
2023/09/13 07:48:14;;;;;;;9.13;6.00;;;20.50;77.70;;;;;;5016488;28;20212;-70
2023/09/13 07:50:40;;;;;;;9.40;5.90;;;20.60;78.00;;;;;;5009830;28;20537;-70
2023/09/13 07:53:13;;;;;;;8.37;5.60;;;20.70;77.60;;;;;;5011625;28;20188;-71
2023/09/13 07:55:39;;;;;;;9.50;5.47;;;20.70;77.30;;;;;;5004217;28;20325;-70
2023/09/13 07:58:06;;;;;;;8.93;5.87;;;20.60;77.70;;;;;;5013437;28;20512;-69
2023/09/13 08:00:32;;;;;;;10.23;5.37;;;20.70;77.80;;;;;;5014502;28;20424;-68
2023/09/13 08:03:01;;;;;;;8.07;5.50;;;20.60;77.60;;;;;;5008677;28;20449;-70
2023/09/13 08:05:27;;;;;;;8.90;4.83;;;20.80;77.70;;;;;;5008852;28;20555;-70
2023/09/13 08:07:54;;;;;;;10.83;6.63;;;20.90;76.20;;;;;;5012051;28;20440;-70
2023/09/13 08:10:22;;;;;;;9.67;5.50;;;20.90;76.20;;;;;;5016800;28;20437;-70
2023/09/13 08:12:48;;;;;;;7.63;5.30;;;20.90;76.70;;;;;;5014132;28;20429;-71
2023/09/13 08:15:14;;;;;;;9.63;5.20;;;20.90;76.50;;;;;;5003615;28;20574;-70
2023/09/13 08:17:39;;;;;;;9.77;5.53;;;20.80;76.80;;;;;;5009670;28;20515;-69
2023/09/13 08:20:08;;;;;;;7.40;5.00;;;20.80;77.30;;;;;;5018157;28;20454;-69
2023/09/13 08:22:34;;;;;;;8.83;5.67;;;20.80;77.00;;;;;;5013721;28;20192;-69
2023/09/13 08:25:00;;;;;;;9.10;5.63;;;20.90;77.00;;;;;;5006908;28;20470;-70
2023/09/13 08:27:26;;;;;;;8.20;5.20;;;21.00;76.70;;;;;;5007915;28;20512;-69
2023/09/13 08:29:53;;;;;;;10.23;4.97;;;21.00;76.50;;;;;;5012531;28;20222;-68
2023/09/13 08:32:19;;;;;;;7.23;5.30;;;21.20;76.20;;;;;;5016907;28;20184;-69
2023/09/13 08:34:45;;;;;;;9.90;4.50;;;21.30;76.10;;;;;;5003157;28;20454;-68
2023/09/13 08:37:10;;;;;;;8.07;5.70;;;21.30;75.90;;;;;;5006334;28;20908;-68
2023/09/13 08:39:37;;;;;;;9.03;5.40;;;21.30;76.10;;;;;;5009307;28;20532;-69
2023/09/13 08:42:03;;;;;;;7.73;4.73;;;21.40;75.50;;;;;;5009443;28;20673;-70
2023/09/13 08:44:30;;;;;;;9.30;5.23;;;21.20;75.80;;;;;;5007569;28;20433;-69
2023/09/13 08:46:58;;;;;;;7.63;4.47;;;21.30;75.90;;;;;;5007440;28;20223;-70
2023/09/13 08:49:24;;;;;;;8.83;5.30;;;21.30;75.80;;;;;;5006524;28;20452;-70
2023/09/13 08:51:51;;;;;;;8.47;5.00;;;21.30;74.90;;;;;;5009658;28;20478;-70
2023/09/13 08:54:18;;;;;;;8.50;4.80;;;21.10;75.50;;;;;;5011092;28;20459;-70
2023/09/13 08:56:45;;;;;;;6.43;4.97;;;21.00;76.50;;;;;;5008121;28;20480;-70
2023/09/13 08:59:15;;;;;;;7.63;5.30;;;21.00;76.80;;;;;;5005372;28;20420;-70
2023/09/13 09:01:46;;;;;;;10.20;5.30;;;21.00;77.30;;;;;;5012386;28;20497;-69
2023/09/13 09:04:14;;;;;;;9.63;5.80;;;21.10;77.30;;;;;;5007579;28;20414;-70
2023/09/13 09:06:41;;;;;;;8.40;5.03;;;21.10;77.00;;;;;;5008246;28;20469;-69
2023/09/13 09:09:07;;;;;;;10.17;6.10;;;21.00;77.10;;;;;;5011012;28;20527;-72
2023/09/13 09:11:35;;;;;;;9.00;4.80;;;21.10;77.80;;;;;;5011916;28;20446;-69
2023/09/13 09:14:02;;;;;;;7.40;4.47;;;20.90;77.80;;;;;;5013341;28;20446;-69
2023/09/13 09:16:31;;;;;;;7.10;4.63;;;20.60;78.70;;;;;;5008066;28;21048;-68
2023/09/13 09:19:00;;;;;;;7.13;4.53;;;20.60;79.60;;;;;;5014889;28;20434;-70
2023/09/13 09:21:25;;;;;;;8.07;5.70;;;20.70;79.50;;;;;;5009559;28;20633;-72
2023/09/13 09:23:52;;;;;;;7.57;5.37;;;20.70;78.70;;;;;;5015021;28;20451;-69
2023/09/13 09:26:18;;;;;;;10.30;4.97;;;20.80;79.00;;;;;;5009173;28;20761;-70
2023/09/13 09:28:44;;;;;;;9.30;4.77;;;20.90;78.70;;;;;;5008778;28;20441;-69
2023/09/13 09:31:12;;;;;;;7.20;4.27;;;21.10;77.70;;;;;;5007629;28;20196;-68
2023/09/13 09:33:39;;;;;;;8.10;4.97;;;21.20;77.40;;;;;;5006328;28;20871;-69
2023/09/13 09:36:05;;;;;;;6.63;4.90;;;21.20;77.30;;;;;;5008582;28;20485;-68
2023/09/13 09:38:31;;;;;;;6.70;4.33;;;21.30;77.30;;;;;;5008840;28;20943;-69
2023/09/13 09:41:03;;;;;;;6.37;4.70;;;21.20;76.80;;;;;;5007070;28;20428;-68
2023/09/13 09:43:30;;;;;;;9.93;5.20;;;21.20;76.80;;;;;;5010326;28;20450;-69
2023/09/13 09:45:56;;;;;;;7.80;4.97;;;21.10;77.40;;;;;;5004662;28;20593;-71
2023/09/13 09:48:22;;;;;;;8.47;5.43;;;21.20;77.70;;;;;;5004456;28;20427;-70
2023/09/13 09:50:51;;;;;;;7.77;4.60;;;21.30;77.70;;;;;;5011848;28;20437;-70
2023/09/13 09:53:19;;;;;;;10.00;5.37;;;21.40;77.60;;;;;;5001108;28;20269;-70
2023/09/13 09:55:45;;;;;;;6.60;5.00;;;21.50;77.40;;;;;;5007256;28;20466;-69
2023/09/13 09:58:11;;;;;;;7.90;4.30;;;21.70;76.70;;;;;;5009104;28;20501;-68
2023/09/13 10:00:56;;;;;;;8.37;4.43;;;21.80;76.20;;;;;;5014909;28;20462;-68
2023/09/13 10:03:22;;;;;;;6.60;4.40;;;21.80;76.10;;;;;;5005140;28;20439;-70
2023/09/13 10:05:59;;;;;;;10.80;5.57;;;21.70;76.20;;;;;;5007427;28;20506;-71
2023/09/13 10:08:44;;;;;;;6.83;4.67;;;21.80;76.20;;;;;;5011694;28;20827;-70
2023/09/13 10:11:14;;;;;;;8.00;4.10;;;21.60;76.70;;;;;;5006659;28;20489;-69
2023/09/13 10:13:41;;;;;;;16.33;4.70;;;21.40;76.40;;;;;;5002271;28;20453;-70
2023/09/13 10:16:11;;;;;;;8.93;4.60;;;21.10;77.60;;;;;;5008339;28;20471;-68
2023/09/13 10:18:52;;;;;;;9.23;4.67;;;20.90;77.40;;;;;;5009394;28;20472;-71
2023/09/13 10:21:26;;;;;;;9.47;5.07;;;20.60;78.00;;;;;;5013966;28;20431;-70
2023/09/13 10:24:01;;;;;;;5.50;3.60;;;20.50;78.90;;;;;;5013219;28;20442;-70
2023/09/13 10:26:29;;;;;;;12.80;5.57;;;20.40;78.60;;;;;;5014820;28;20490;-69
2023/09/13 10:28:59;;;;;;;6.13;4.23;;;20.50;78.60;;;;;;5016231;28;20520;-71
2023/09/13 10:31:27;;;;;;;7.70;4.20;;;20.50;77.40;;;;;;5010951;28;20425;-69
2023/09/13 10:33:57;;;;;;;7.57;4.57;;;20.60;78.00;;;;;;5011714;28;20468;-69
2023/09/13 10:36:36;;;;;;;7.00;4.63;;;20.80;78.10;;;;;;5006300;28;20635;-72
2023/09/13 10:39:18;;;;;;;7.87;4.80;;;20.80;77.80;;;;;;5009219;28;20531;-69
2023/09/13 10:42:06;;;;;;;12.60;4.97;;;20.70;78.00;;;;;;5011004;28;20442;-70
2023/09/13 10:44:34;;;;;;;9.37;4.70;;;20.70;78.10;;;;;;5003609;28;20950;-69
2023/09/13 10:47:00;;;;;;;23.33;5.53;;;20.80;78.00;;;;;;5004904;28;20505;-70
2023/09/13 10:49:26;;;;;;;14.97;5.07;;;20.90;77.80;;;;;;5005598;28;20478;-69
2023/09/13 10:51:54;;;;;;;10.53;5.00;;;21.00;77.30;;;;;;5005492;28;20508;-70
2023/09/13 10:54:21;;;;;;;12.03;4.73;;;21.10;77.00;;;;;;5009190;28;20964;-72
2023/09/13 10:56:48;;;;;;;12.07;5.30;;;21.10;76.50;;;;;;5005796;28;20479;-70
2023/09/13 10:59:20;;;;;;;6.73;4.20;;;21.10;77.10;;;;;;5005595;28;20419;-70
2023/09/13 11:01:46;;;;;;;7.33;4.70;;;21.10;76.20;;;;;;5009288;28;20427;-68
2023/09/13 11:04:26;;;;;;;6.93;4.53;;;21.10;75.70;;;;;;5007414;28;20426;-69
2023/09/13 11:06:53;;;;;;;8.83;5.87;;;21.20;76.10;;;;;;4998645;28;20506;-68
2023/09/13 11:09:26;;;;;;;9.60;5.40;;;21.40;75.70;;;;;;5008778;28;20446;-70
2023/09/13 11:11:52;;;;;;;8.90;5.00;;;21.50;74.90;;;;;;5009113;28;20434;-70
2023/09/13 11:14:29;;;;;;;8.40;4.87;;;21.70;73.50;;;;;;5005754;28;20413;-70
2023/09/13 11:17:07;;;;;;;8.07;4.97;;;21.90;72.60;;;;;;5008436;28;20484;-71
2023/09/13 11:19:33;;;;;;;8.80;5.03;;;22.10;71.70;;;;;;5013369;28;20424;-70
2023/09/13 11:22:02;;;;;;;7.13;4.67;;;22.30;70.50;;;;;;5013048;28;20431;-69
2023/09/13 11:24:43;;;;;;;11.40;5.17;;;22.50;70.20;;;;;;5013512;28;20193;-68
2023/09/13 11:27:12;;;;;;;10.07;4.63;;;22.70;69.80;;;;;;5008016;28;20441;-68
2023/09/13 11:29:41;;;;;;;8.33;4.97;;;23.00;68.90;;;;;;5007062;28;20813;-71
2023/09/13 11:32:07;;;;;;;7.97;4.43;;;23.10;66.90;;;;;;5010538;28;20484;-72
2023/09/13 11:34:34;;;;;;;7.47;4.80;;;23.10;67.20;;;;;;4998605;28;20596;-69
2023/09/13 11:37:10;;;;;;;11.13;4.90;;;23.20;66.60;;;;;;5008244;28;20534;-72
2023/09/13 11:39:35;;;;;;;7.07;4.57;;;22.90;67.20;;;;;;5005243;28;20546;-68
2023/09/13 11:42:04;;;;;;;5.97;4.20;;;22.90;67.90;;;;;;5005327;28;20903;-70
2023/09/13 11:44:30;;;;;;;6.77;4.73;;;23.10;67.90;;;;;;5002547;28;20262;-70
2023/09/13 11:46:56;;;;;;;8.70;4.67;;;22.90;67.00;;;;;;5007959;28;20994;-71
2023/09/13 11:49:24;;;;;;;6.73;4.33;;;22.60;68.50;;;;;;5007356;28;20561;-70
2023/09/13 11:51:59;;;;;;;8.07;4.50;;;22.60;69.40;;;;;;5011219;28;20193;-71
2023/09/13 11:54:26;;;;;;;7.37;4.73;;;22.50;69.90;;;;;;5013640;28;20582;-70
2023/09/13 11:56:53;;;;;;;7.63;4.60;;;22.60;67.60;;;;;;5004747;28;20472;-72
2023/09/13 11:59:31;;;;;;;10.10;4.70;;;22.70;67.20;;;;;;5010485;28;20448;-71
2023/09/13 12:01:58;;;;;;;6.50;4.70;;;22.70;67.70;;;;;;5015155;28;20430;-70
2023/09/13 12:04:25;;;;;;;7.40;4.57;;;22.70;67.60;;;;;;5002683;28;20512;-69
2023/09/13 12:06:54;;;;;;;9.47;4.93;;;23.00;67.50;;;;;;5003316;28;21012;-69
2023/09/13 12:09:21;;;;;;;6.80;4.40;;;23.30;66.40;;;;;;5008791;28;20511;-71
2023/09/13 12:11:51;;;;;;;10.20;4.70;;;23.40;66.10;;;;;;5008083;28;20445;-69
2023/09/13 12:14:22;;;;;;;6.50;4.60;;;23.50;65.30;;;;;;5003620;28;20463;-71
2023/09/13 12:16:51;;;;;;;7.83;4.43;;;23.70;65.10;;;;;;5002882;28;20489;-71
2023/09/13 12:19:17;;;;;;;6.70;4.57;;;24.00;64.70;;;;;;5007655;28;20433;-70
2023/09/13 12:21:44;;;;;;;8.27;4.53;;;24.30;63.90;;;;;;5008198;28;20425;-69
2023/09/13 12:24:12;;;;;;;7.53;4.60;;;24.60;63.20;;;;;;5003841;28;20214;-70
2023/09/13 12:26:39;;;;;;;6.37;4.20;;;24.60;62.80;;;;;;5005194;28;20565;-71
2023/09/13 12:29:04;;;;;;;7.00;4.87;;;24.70;62.60;;;;;;5004722;28;20438;-69
2023/09/13 12:31:30;;;;;;;5.93;4.30;;;24.80;63.10;;;;;;5006518;28;20442;-70
2023/09/13 12:33:57;;;;;;;8.03;4.47;;;25.20;61.70;;;;;;5010914;28;20186;-71
2023/09/13 12:36:24;;;;;;;6.30;4.00;;;25.10;61.60;;;;;;5008988;28;20212;-70
2023/09/13 12:38:50;;;;;;;5.80;4.17;;;25.10;61.70;;;;;;5017984;28;20431;-72
2023/09/13 12:41:19;;;;;;;6.60;4.33;;;25.00;60.90;;;;;;5013832;28;20995;-71